createdAt,value
2022-12-15T00:04:48.919Z,-8.38
2022-12-15T00:09:53.107Z,-8.42
2022-12-15T00:14:57.267Z,-8.36
2022-12-15T00:20:01.443Z,-8.34
2022-12-15T00:25:05.598Z,-8.42
2022-12-15T00:30:09.781Z,-8.36
2022-12-15T00:35:13.967Z,-8.48
2022-12-15T00:40:18.112Z,-8.47
2022-12-15T00:45:22.283Z,-8.45
2022-12-15T00:50:26.460Z,-8.47
2022-12-15T00:55:30.634Z,-8.38
2022-12-15T01:00:34.792Z,-8.44
2022-12-15T01:05:38.983Z,-8.44
2022-12-15T01:10:43.146Z,-8.47
2022-12-15T01:15:47.347Z,-8.47
2022-12-15T01:20:51.498Z,-8.40
2022-12-15T01:25:55.648Z,-8.43
2022-12-15T01:30:59.867Z,-8.43
2022-12-15T01:36:03.972Z,-8.32
2022-12-15T01:41:08.170Z,-8.36
2022-12-15T01:46:12.351Z,-8.37
2022-12-15T01:51:16.512Z,-8.39
2022-12-15T01:56:20.695Z,-8.26
2022-12-15T02:01:24.980Z,-8.32
2022-12-15T02:06:29.120Z,-8.40
2022-12-15T02:11:33.231Z,-8.38
2022-12-15T02:16:37.468Z,-8.44
2022-12-15T02:21:41.557Z,-8.48
2022-12-15T02:26:45.688Z,-8.58
2022-12-15T02:31:50.328Z,-8.45
2022-12-15T02:36:54.037Z,-8.48
2022-12-15T02:41:58.378Z,-8.47
2022-12-15T02:47:02.386Z,-8.47
2022-12-15T02:52:06.570Z,-8.52
2022-12-15T02:57:10.739Z,-8.52
2022-12-15T03:02:15.049Z,-8.46
2022-12-15T03:07:19.094Z,-8.50
2022-12-15T03:12:23.255Z,-8.54
2022-12-15T03:17:27.431Z,-8.53
2022-12-15T03:22:31.604Z,-8.40
2022-12-15T03:27:35.794Z,-8.43
2022-12-15T03:32:39.983Z,-8.42
2022-12-15T03:37:44.132Z,-8.43
2022-12-15T03:42:48.317Z,-8.45
2022-12-15T03:47:52.448Z,-8.45
2022-12-15T03:52:56.634Z,-8.53
2022-12-15T03:58:00.968Z,-8.58
2022-12-15T04:03:05.109Z,-8.61
2022-12-15T04:08:09.127Z,-8.52
2022-12-15T04:13:13.292Z,-8.54
2022-12-15T04:18:17.481Z,-8.53
2022-12-15T04:23:21.663Z,-8.47
2022-12-15T04:28:25.847Z,-8.47
2022-12-15T04:33:30.897Z,-8.51
2022-12-15T04:38:32.260Z,-8.51
2022-12-15T04:43:36.439Z,-8.30
2022-12-15T04:48:40.605Z,-8.38
2022-12-15T04:53:44.775Z,-8.40
2022-12-15T04:58:48.969Z,-8.04
2022-12-15T05:03:53.192Z,-8.09
2022-12-15T05:08:57.276Z,-8.19
2022-12-15T05:14:01.448Z,-8.30
2022-12-15T05:19:05.618Z,-8.32
2022-12-15T05:24:09.828Z,-8.34
2022-12-15T05:29:14.010Z,-8.27
2022-12-15T05:34:18.144Z,-8.25
2022-12-15T05:39:22.335Z,-8.33
2022-12-15T05:44:26.516Z,-8.28
2022-12-15T05:49:30.661Z,-8.10
2022-12-15T05:54:34.843Z,-8.25
2022-12-15T05:59:39.014Z,-8.37
2022-12-15T06:04:43.227Z,-8.38
2022-12-15T06:09:47.337Z,-8.34
2022-12-15T06:14:51.555Z,-8.33
2022-12-15T06:19:55.691Z,-8.39
2022-12-15T06:24:59.868Z,-8.43
2022-12-15T06:30:04.041Z,-8.40
2022-12-15T06:35:08.245Z,-8.30
2022-12-15T06:40:12.360Z,-8.14
2022-12-15T06:45:16.555Z,-8.05
2022-12-15T06:50:20.763Z,-8.07
2022-12-15T06:55:24.895Z,-8.01
2022-12-15T07:00:29.167Z,-7.89
2022-12-15T07:05:33.261Z,-7.98
2022-12-15T07:10:37.401Z,-7.90
2022-12-15T07:15:41.722Z,-7.87
2022-12-15T07:20:45.787Z,-7.97
2022-12-15T07:25:49.912Z,-8.15
2022-12-15T07:30:54.053Z,-8.09
2022-12-15T07:35:58.245Z,-8.19
2022-12-15T07:41:02.437Z,-8.20
2022-12-15T07:46:06.654Z,-8.22
2022-12-15T07:51:17.397Z,-8.10
2022-12-15T07:56:14.943Z,-8.12
2022-12-15T08:01:19.284Z,-8.06
2022-12-15T08:06:23.272Z,-8.11
2022-12-15T08:11:27.446Z,-8.05
2022-12-15T08:16:31.820Z,-8.08
2022-12-15T08:21:35.779Z,-8.08
2022-12-15T08:26:40.003Z,-8.05
2022-12-15T08:31:44.219Z,-8.00
2022-12-15T08:36:50.542Z,-7.90
2022-12-15T08:41:52.496Z,-7.82
2022-12-15T08:46:56.667Z,-7.70
2022-12-15T08:52:00.834Z,-7.71
2022-12-15T08:57:05.041Z,-7.69
2022-12-15T09:02:09.299Z,-7.62
2022-12-15T09:07:13.389Z,-7.62
2022-12-15T09:12:17.517Z,-7.52
2022-12-15T09:17:21.714Z,-7.44
2022-12-15T09:22:25.937Z,-7.39
2022-12-15T09:27:30.038Z,-7.32
2022-12-15T09:32:34.175Z,-7.32
2022-12-15T09:37:38.379Z,-7.28
2022-12-15T09:42:42.506Z,-7.17
2022-12-15T09:47:46.711Z,-6.73
2022-12-15T09:52:50.872Z,-6.49
2022-12-15T09:57:55.036Z,-6.47
2022-12-15T10:02:57.389Z,-6.47
2022-12-15T10:08:01.475Z,-6.26
2022-12-15T10:13:05.709Z,-5.97
2022-12-15T10:18:09.842Z,-5.80
2022-12-15T10:28:18.166Z,-5.43
2022-12-15T10:33:20.431Z,-5.28
2022-12-15T10:38:24.626Z,-5.04
2022-12-15T10:43:29.118Z,-4.97
2022-12-15T10:48:32.968Z,-4.77
2022-12-15T10:53:37.112Z,-4.46
2022-12-15T10:58:41.272Z,-4.36
2022-12-15T11:03:45.876Z,-4.21
2022-12-15T11:08:49.637Z,-4.18
2022-12-15T11:13:53.802Z,-4.06
2022-12-15T11:18:57.935Z,-3.81
2022-12-15T11:24:02.119Z,-3.75
2022-12-15T11:29:06.313Z,-3.62
2022-12-15T11:34:10.480Z,-3.42
2022-12-15T11:39:14.741Z,-3.21
2022-12-15T11:44:18.826Z,-3.05
2022-12-15T11:49:22.959Z,-2.95
2022-12-15T11:54:27.099Z,-2.86
2022-12-15T11:59:31.268Z,-2.82
2022-12-15T12:04:35.659Z,-2.48
2022-12-15T12:09:39.602Z,-2.47
2022-12-15T12:14:43.769Z,-2.36
2022-12-15T12:19:50.870Z,-2.18
2022-12-15T12:24:52.155Z,-2.07
2022-12-15T12:29:56.292Z,-1.96
2022-12-15T12:35:31.212Z,-1.81
2022-12-15T12:40:04.704Z,-1.76
2022-12-15T12:45:08.795Z,-1.62
2022-12-15T12:50:12.940Z,-1.51
2022-12-15T12:55:17.142Z,-1.34
2022-12-15T13:00:21.441Z,-1.23
2022-12-15T13:05:25.471Z,-1.17
2022-12-15T13:10:29.616Z,-1.08
2022-12-15T13:15:33.782Z,-1.09
2022-12-15T13:20:37.967Z,-0.90
2022-12-15T13:25:42.102Z,-0.92
2022-12-15T13:30:46.338Z,-0.77
2022-12-15T13:35:50.508Z,-0.73
2022-12-15T13:40:54.622Z,-0.67
2022-12-15T13:45:58.893Z,-0.74
2022-12-15T13:51:02.982Z,-0.67
2022-12-15T13:56:07.105Z,-0.66
2022-12-15T14:01:11.304Z,-0.63
2022-12-15T14:06:15.467Z,-0.69
2022-12-15T14:11:50.824Z,-0.62
2022-12-15T14:16:23.840Z,-0.52
2022-12-15T14:21:27.980Z,-0.54
2022-12-15T14:26:32.508Z,-0.56
2022-12-15T14:31:36.357Z,-0.67
2022-12-15T14:36:40.478Z,-0.76
2022-12-15T14:41:44.719Z,-0.93
2022-12-15T14:46:48.799Z,-1.15
2022-12-15T14:51:52.965Z,-1.31
2022-12-15T14:56:57.129Z,-1.50
2022-12-15T15:02:01.472Z,-1.65
2022-12-15T15:07:05.443Z,-1.83
2022-12-15T15:12:09.649Z,-2.00
2022-12-15T15:17:13.867Z,-2.17
2022-12-15T15:22:17.949Z,-2.39
2022-12-15T15:27:22.207Z,-2.55
2022-12-15T15:32:26.279Z,-2.68
2022-12-15T15:37:30.552Z,-2.82
2022-12-15T15:42:34.622Z,-3.00
2022-12-15T15:47:38.827Z,-3.15
2022-12-15T15:52:42.976Z,-3.27
2022-12-15T15:57:47.169Z,-3.35
2022-12-15T16:02:49.709Z,-3.44
2022-12-15T16:07:53.580Z,-3.48
2022-12-15T16:12:57.742Z,-3.59
2022-12-15T16:18:01.890Z,-3.64
2022-12-15T16:23:06.081Z,-3.77
2022-12-15T16:28:10.285Z,-3.87
2022-12-15T16:33:14.423Z,-4.01
2022-12-15T16:38:18.597Z,-4.09
2022-12-15T16:43:22.762Z,-4.19
2022-12-15T16:48:26.990Z,-4.21
2022-12-15T16:58:35.460Z,-4.40
2022-12-15T17:03:39.521Z,-4.44
2022-12-15T17:08:43.577Z,-4.40
2022-12-15T17:13:47.751Z,-4.52
2022-12-15T17:18:51.914Z,-4.66
2022-12-15T17:23:56.124Z,-4.81
2022-12-15T17:29:00.261Z,-4.87
2022-12-15T17:34:04.453Z,-4.83
2022-12-15T17:39:08.620Z,-4.96
2022-12-15T17:44:32.237Z,-5.06
2022-12-15T17:49:16.965Z,-5.13
2022-12-15T17:54:21.114Z,-5.23
2022-12-15T17:59:25.280Z,-5.35
2022-12-15T18:04:29.525Z,-5.39
2022-12-15T18:09:33.656Z,-5.48
2022-12-15T18:14:37.784Z,-5.46
2022-12-15T18:19:41.985Z,-5.28
2022-12-15T18:24:46.154Z,-5.31
2022-12-15T18:29:50.291Z,-5.47
2022-12-15T18:34:54.468Z,-5.56
2022-12-15T18:40:04.590Z,-5.63
2022-12-15T18:45:02.891Z,-5.69
2022-12-15T18:50:06.991Z,-5.75
2022-12-15T18:55:11.111Z,-5.81
2022-12-15T19:00:15.302Z,-5.81
2022-12-15T19:05:19.492Z,-5.69
2022-12-15T19:10:23.679Z,-5.72
2022-12-15T19:15:28.098Z,-5.71
2022-12-15T19:20:31.983Z,-5.76
2022-12-15T19:25:36.167Z,-5.93
2022-12-15T19:30:42.191Z,-6.13
2022-12-15T19:35:44.484Z,-6.22
2022-12-15T19:40:48.674Z,-6.34
2022-12-15T19:45:52.924Z,-6.39
2022-12-15T19:50:56.997Z,-6.17
2022-12-15T19:56:01.197Z,-6.28
2022-12-15T20:01:05.453Z,-6.44
2022-12-15T20:06:09.523Z,-6.58
2022-12-15T20:11:13.710Z,-6.42
2022-12-15T20:16:17.922Z,-6.46
2022-12-15T20:21:22.512Z,-6.46
2022-12-15T20:26:26.186Z,-6.39
2022-12-15T20:31:30.436Z,-6.45
2022-12-15T20:36:34.562Z,-6.51
2022-12-15T20:41:38.691Z,-6.49
2022-12-15T20:46:42.877Z,-6.55
2022-12-15T20:51:47.039Z,-6.61
2022-12-15T20:56:51.188Z,-6.70
2022-12-15T21:01:55.571Z,-6.64
2022-12-15T21:06:59.581Z,-6.75
2022-12-15T21:12:08.977Z,-6.91
2022-12-15T21:17:07.938Z,-6.95
2022-12-15T21:22:12.074Z,-7.07
2022-12-15T21:27:16.259Z,-7.20
2022-12-15T21:32:18.543Z,-7.24
2022-12-15T21:37:22.855Z,-7.06
2022-12-15T21:42:26.854Z,-7.05
2022-12-15T21:47:31.026Z,-7.22
2022-12-15T21:52:35.179Z,-7.27
2022-12-15T21:57:39.387Z,-7.31
2022-12-15T22:02:43.626Z,-7.24
2022-12-15T22:07:47.686Z,-7.32
2022-12-15T22:12:59.061Z,-7.34
2022-12-15T22:17:56.036Z,-7.46
2022-12-15T22:23:00.213Z,-7.31
2022-12-15T22:28:04.393Z,-7.35
2022-12-15T22:33:08.531Z,-7.52
2022-12-15T22:38:12.726Z,-7.63
2022-12-15T22:43:16.929Z,-7.68
2022-12-15T22:48:21.234Z,-7.80
2022-12-15T22:53:25.219Z,-7.90
2022-12-15T22:58:29.889Z,-8.00
2022-12-15T23:03:34.120Z,-8.02
2022-12-15T23:08:37.730Z,-8.00
2022-12-15T23:13:41.902Z,-7.96
2022-12-15T23:18:46.048Z,-8.03
2022-12-15T23:23:50.264Z,-8.08
2022-12-15T23:28:55.068Z,-8.09
2022-12-15T23:33:58.591Z,-8.05
2022-12-15T23:39:02.792Z,-8.04
2022-12-15T23:44:06.944Z,-7.89
2022-12-15T23:49:11.123Z,-7.95
2022-12-15T23:54:15.285Z,-8.08
2022-12-15T23:59:19.423Z,-8.23
